sensor_id;sensor_type;location;lat;lon;timestamp;P1;durP1;ratioP1;P2;durP2;ratioP2
40453;SDS011;26160;51.858;4.398;2024-01-15T00:01:47;12.67;;;1.73;;
40453;SDS011;26160;51.858;4.398;2024-01-15T00:04:13;12.87;;;1.77;;
40453;SDS011;26160;51.858;4.398;2024-01-15T00:06:39;19.07;;;2.20;;
40453;SDS011;26160;51.858;4.398;2024-01-15T00:09:06;13.40;;;2.30;;
40453;SDS011;26160;51.858;4.398;2024-01-15T00:11:32;14.03;;;2.10;;
40453;SDS011;26160;51.858;4.398;2024-01-15T00:14:04;16.73;;;2.55;;
40453;SDS011;26160;51.858;4.398;2024-01-15T00:16:31;10.83;;;1.93;;
40453;SDS011;26160;51.858;4.398;2024-01-15T00:18:57;11.07;;;1.60;;
40453;SDS011;26160;51.858;4.398;2024-01-15T00:21:23;16.17;;;2.30;;
40453;SDS011;26160;51.858;4.398;2024-01-15T00:23:49;16.10;;;2.30;;
40453;SDS011;26160;51.858;4.398;2024-01-15T00:26:15;13.07;;;2.07;;
40453;SDS011;26160;51.858;4.398;2024-01-15T00:28:41;17.43;;;2.33;;
40453;SDS011;26160;51.858;4.398;2024-01-15T00:31:08;16.67;;;4.17;;
40453;SDS011;26160;51.858;4.398;2024-01-15T00:33:34;16.30;;;2.20;;
40453;SDS011;26160;51.858;4.398;2024-01-15T00:36:00;8.50;;;1.33;;
40453;SDS011;26160;51.858;4.398;2024-01-15T00:38:27;14.40;;;1.83;;
40453;SDS011;26160;51.858;4.398;2024-01-15T00:40:53;6.83;;;1.60;;
40453;SDS011;26160;51.858;4.398;2024-01-15T00:43:19;13.60;;;1.40;;
40453;SDS011;26160;51.858;4.398;2024-01-15T00:45:46;11.03;;;1.40;;
40453;SDS011;26160;51.858;4.398;2024-01-15T00:48:12;10.10;;;1.60;;
40453;SDS011;26160;51.858;4.398;2024-01-15T00:50:39;11.87;;;1.60;;
40453;SDS011;26160;51.858;4.398;2024-01-15T00:53:05;10.87;;;1.80;;
40453;SDS011;26160;51.858;4.398;2024-01-15T00:55:31;9.83;;;1.73;;
40453;SDS011;26160;51.858;4.398;2024-01-15T00:57:57;15.60;;;2.10;;
40453;SDS011;26160;51.858;4.398;2024-01-15T01:00:23;15.57;;;2.43;;
40453;SDS011;26160;51.858;4.398;2024-01-15T01:02:49;14.27;;;2.67;;
40453;SDS011;26160;51.858;4.398;2024-01-15T01:05:16;17.13;;;2.10;;
40453;SDS011;26160;51.858;4.398;2024-01-15T01:07:42;13.80;;;1.80;;
40453;SDS011;26160;51.858;4.398;2024-01-15T01:10:08;15.00;;;1.97;;
40453;SDS011;26160;51.858;4.398;2024-01-15T01:12:34;15.60;;;2.00;;
40453;SDS011;26160;51.858;4.398;2024-01-15T01:15:01;20.83;;;2.43;;
40453;SDS011;26160;51.858;4.398;2024-01-15T01:17:28;17.57;;;2.23;;
40453;SDS011;26160;51.858;4.398;2024-01-15T01:19:54;13.63;;;2.00;;
40453;SDS011;26160;51.858;4.398;2024-01-15T01:22:20;12.00;;;1.47;;
40453;SDS011;26160;51.858;4.398;2024-01-15T01:24:46;15.47;;;1.73;;
40453;SDS011;26160;51.858;4.398;2024-01-15T01:27:12;10.13;;;1.60;;
40453;SDS011;26160;51.858;4.398;2024-01-15T01:29:38;11.40;;;1.70;;
40453;SDS011;26160;51.858;4.398;2024-01-15T01:32:05;19.27;;;1.80;;
40453;SDS011;26160;51.858;4.398;2024-01-15T01:34:32;22.73;;;2.43;;
40453;SDS011;26160;51.858;4.398;2024-01-15T01:37:06;19.67;;;1.97;;
40453;SDS011;26160;51.858;4.398;2024-01-15T01:39:32;17.23;;;2.77;;
40453;SDS011;26160;51.858;4.398;2024-01-15T01:41:59;11.90;;;1.83;;
40453;SDS011;26160;51.858;4.398;2024-01-15T01:44:25;10.83;;;1.20;;
40453;SDS011;26160;51.858;4.398;2024-01-15T01:46:51;14.67;;;1.63;;
40453;SDS011;26160;51.858;4.398;2024-01-15T01:49:18;12.03;;;1.40;;
40453;SDS011;26160;51.858;4.398;2024-01-15T01:51:44;12.27;;;1.47;;
40453;SDS011;26160;51.858;4.398;2024-01-15T01:54:12;10.23;;;1.23;;
40453;SDS011;26160;51.858;4.398;2024-01-15T01:56:40;14.33;;;2.70;;
40453;SDS011;26160;51.858;4.398;2024-01-15T01:59:07;13.47;;;1.43;;
40453;SDS011;26160;51.858;4.398;2024-01-15T02:04:23;13.60;;;1.43;;
40453;SDS011;26160;51.858;4.398;2024-01-15T02:06:50;12.90;;;1.70;;
40453;SDS011;26160;51.858;4.398;2024-01-15T02:09:20;17.20;;;1.83;;
40453;SDS011;26160;51.858;4.398;2024-01-15T02:11:46;12.17;;;1.40;;
40453;SDS011;26160;51.858;4.398;2024-01-15T02:14:13;17.13;;;2.30;;
40453;SDS011;26160;51.858;4.398;2024-01-15T02:16:39;14.67;;;2.17;;
40453;SDS011;26160;51.858;4.398;2024-01-15T02:19:06;19.00;;;2.37;;
40453;SDS011;26160;51.858;4.398;2024-01-15T02:21:32;19.47;;;2.57;;
40453;SDS011;26160;51.858;4.398;2024-01-15T02:23:58;22.00;;;2.00;;
40453;SDS011;26160;51.858;4.398;2024-01-15T02:26:25;16.67;;;2.33;;
40453;SDS011;26160;51.858;4.398;2024-01-15T02:28:51;11.77;;;2.07;;
40453;SDS011;26160;51.858;4.398;2024-01-15T02:31:17;13.93;;;1.80;;
40453;SDS011;26160;51.858;4.398;2024-01-15T02:33:43;13.60;;;1.63;;
40453;SDS011;26160;51.858;4.398;2024-01-15T02:36:11;16.13;;;1.50;;
40453;SDS011;26160;51.858;4.398;2024-01-15T02:38:38;6.83;;;0.80;;
40453;SDS011;26160;51.858;4.398;2024-01-15T02:41:04;7.20;;;1.33;;
40453;SDS011;26160;51.858;4.398;2024-01-15T02:43:30;9.30;;;1.07;;
40453;SDS011;26160;51.858;4.398;2024-01-15T02:45:56;3.70;;;0.73;;
40453;SDS011;26160;51.858;4.398;2024-01-15T02:48:22;3.97;;;0.77;;
40453;SDS011;26160;51.858;4.398;2024-01-15T02:50:48;7.53;;;1.03;;
40453;SDS011;26160;51.858;4.398;2024-01-15T02:53:14;5.93;;;0.90;;
40453;SDS011;26160;51.858;4.398;2024-01-15T02:55:40;9.63;;;1.07;;
40453;SDS011;26160;51.858;4.398;2024-01-15T02:58:07;5.83;;;0.90;;
40453;SDS011;26160;51.858;4.398;2024-01-15T03:00:33;5.90;;;1.03;;
40453;SDS011;26160;51.858;4.398;2024-01-15T03:02:59;4.37;;;1.10;;
40453;SDS011;26160;51.858;4.398;2024-01-15T03:05:25;6.40;;;0.90;;
40453;SDS011;26160;51.858;4.398;2024-01-15T03:07:51;8.97;;;1.80;;
40453;SDS011;26160;51.858;4.398;2024-01-15T03:10:17;5.00;;;0.90;;
40453;SDS011;26160;51.858;4.398;2024-01-15T03:12:43;9.80;;;1.07;;
40453;SDS011;26160;51.858;4.398;2024-01-15T03:15:09;9.33;;;1.00;;
40453;SDS011;26160;51.858;4.398;2024-01-15T03:17:36;10.70;;;1.33;;
40453;SDS011;26160;51.858;4.398;2024-01-15T03:20:02;10.70;;;1.37;;
40453;SDS011;26160;51.858;4.398;2024-01-15T03:22:28;9.13;;;1.57;;
40453;SDS011;26160;51.858;4.398;2024-01-15T03:24:54;9.53;;;1.23;;
40453;SDS011;26160;51.858;4.398;2024-01-15T03:27:21;7.87;;;1.37;;
40453;SDS011;26160;51.858;4.398;2024-01-15T03:29:47;8.27;;;1.50;;
40453;SDS011;26160;51.858;4.398;2024-01-15T03:32:13;14.13;;;1.70;;
40453;SDS011;26160;51.858;4.398;2024-01-15T03:34:39;6.70;;;1.40;;
40453;SDS011;26160;51.858;4.398;2024-01-15T03:37:05;11.63;;;1.53;;
40453;SDS011;26160;51.858;4.398;2024-01-15T03:39:31;6.13;;;1.20;;
40453;SDS011;26160;51.858;4.398;2024-01-15T03:41:57;7.50;;;1.53;;
40453;SDS011;26160;51.858;4.398;2024-01-15T03:44:23;7.70;;;1.30;;
40453;SDS011;26160;51.858;4.398;2024-01-15T03:46:50;9.80;;;0.93;;
40453;SDS011;26160;51.858;4.398;2024-01-15T03:49:16;20.20;;;1.77;;
40453;SDS011;26160;51.858;4.398;2024-01-15T03:51:42;5.37;;;0.73;;
40453;SDS011;26160;51.858;4.398;2024-01-15T03:54:08;11.47;;;2.23;;
40453;SDS011;26160;51.858;4.398;2024-01-15T03:56:34;5.47;;;0.63;;
40453;SDS011;26160;51.858;4.398;2024-01-15T03:59:00;8.03;;;1.00;;
40453;SDS011;26160;51.858;4.398;2024-01-15T04:01:27;2.23;;;0.47;;
40453;SDS011;26160;51.858;4.398;2024-01-15T04:03:53;5.17;;;0.40;;
40453;SDS011;26160;51.858;4.398;2024-01-15T04:06:19;1.93;;;0.30;;
40453;SDS011;26160;51.858;4.398;2024-01-15T04:08:45;2.47;;;0.40;;
40453;SDS011;26160;51.858;4.398;2024-01-15T04:11:11;2.53;;;0.20;;
40453;SDS011;26160;51.858;4.398;2024-01-15T04:13:37;0.83;;;0.27;;
40453;SDS011;26160;51.858;4.398;2024-01-15T04:16:03;2.73;;;0.40;;
40453;SDS011;26160;51.858;4.398;2024-01-15T04:18:30;2.93;;;0.57;;
40453;SDS011;26160;51.858;4.398;2024-01-15T04:20:56;2.57;;;0.57;;
40453;SDS011;26160;51.858;4.398;2024-01-15T04:23:22;4.77;;;0.50;;
40453;SDS011;26160;51.858;4.398;2024-01-15T04:25:48;4.13;;;0.50;;
40453;SDS011;26160;51.858;4.398;2024-01-15T04:28:14;10.47;;;0.80;;
40453;SDS011;26160;51.858;4.398;2024-01-15T04:30:40;7.53;;;0.87;;
40453;SDS011;26160;51.858;4.398;2024-01-15T04:33:06;5.17;;;0.73;;
40453;SDS011;26160;51.858;4.398;2024-01-15T04:35:33;7.40;;;1.03;;
40453;SDS011;26160;51.858;4.398;2024-01-15T04:38:00;5.37;;;0.87;;
40453;SDS011;26160;51.858;4.398;2024-01-15T04:40:26;22.53;;;2.27;;
40453;SDS011;26160;51.858;4.398;2024-01-15T04:42:53;8.17;;;1.07;;
40453;SDS011;26160;51.858;4.398;2024-01-15T04:45:20;4.83;;;0.80;;
40453;SDS011;26160;51.858;4.398;2024-01-15T04:47:48;8.83;;;1.10;;
40453;SDS011;26160;51.858;4.398;2024-01-15T04:50:15;8.67;;;1.20;;
40453;SDS011;26160;51.858;4.398;2024-01-15T04:52:41;7.90;;;1.20;;
40453;SDS011;26160;51.858;4.398;2024-01-15T04:55:07;10.47;;;0.87;;
40453;SDS011;26160;51.858;4.398;2024-01-15T04:57:33;4.90;;;0.60;;
40453;SDS011;26160;51.858;4.398;2024-01-15T04:59:59;9.30;;;1.10;;
40453;SDS011;26160;51.858;4.398;2024-01-15T05:02:25;7.70;;;0.70;;
40453;SDS011;26160;51.858;4.398;2024-01-15T05:04:51;8.13;;;0.90;;
40453;SDS011;26160;51.858;4.398;2024-01-15T05:07:18;8.93;;;1.00;;
40453;SDS011;26160;51.858;4.398;2024-01-15T05:09:44;9.33;;;1.10;;
40453;SDS011;26160;51.858;4.398;2024-01-15T05:12:10;8.80;;;0.97;;
40453;SDS011;26160;51.858;4.398;2024-01-15T05:14:37;6.03;;;1.10;;
40453;SDS011;26160;51.858;4.398;2024-01-15T05:17:03;8.00;;;1.03;;
40453;SDS011;26160;51.858;4.398;2024-01-15T05:19:29;5.90;;;1.00;;
40453;SDS011;26160;51.858;4.398;2024-01-15T05:21:55;6.80;;;0.90;;
40453;SDS011;26160;51.858;4.398;2024-01-15T05:24:21;9.60;;;1.67;;
40453;SDS011;26160;51.858;4.398;2024-01-15T05:26:47;5.83;;;1.13;;
40453;SDS011;26160;51.858;4.398;2024-01-15T05:29:13;8.97;;;0.80;;
40453;SDS011;26160;51.858;4.398;2024-01-15T05:31:39;8.23;;;1.70;;
40453;SDS011;26160;51.858;4.398;2024-01-15T05:34:06;6.87;;;1.30;;
40453;SDS011;26160;51.858;4.398;2024-01-15T05:36:32;4.07;;;0.63;;
40453;SDS011;26160;51.858;4.398;2024-01-15T05:38:58;8.30;;;0.73;;
40453;SDS011;26160;51.858;4.398;2024-01-15T05:41:24;4.47;;;0.70;;
40453;SDS011;26160;51.858;4.398;2024-01-15T05:43:50;9.00;;;0.73;;
40453;SDS011;26160;51.858;4.398;2024-01-15T05:46:16;4.93;;;0.70;;
40453;SDS011;26160;51.858;4.398;2024-01-15T05:48:42;6.77;;;0.70;;
40453;SDS011;26160;51.858;4.398;2024-01-15T05:51:08;7.77;;;0.90;;
40453;SDS011;26160;51.858;4.398;2024-01-15T05:53:35;8.43;;;1.07;;
40453;SDS011;26160;51.858;4.398;2024-01-15T05:56:01;3.97;;;0.93;;
40453;SDS011;26160;51.858;4.398;2024-01-15T05:58:27;7.53;;;1.20;;
40453;SDS011;26160;51.858;4.398;2024-01-15T06:00:54;4.37;;;0.63;;
40453;SDS011;26160;51.858;4.398;2024-01-15T06:03:20;4.87;;;1.30;;
40453;SDS011;26160;51.858;4.398;2024-01-15T06:05:46;8.23;;;1.47;;
40453;SDS011;26160;51.858;4.398;2024-01-15T06:08:12;6.87;;;1.30;;
40453;SDS011;26160;51.858;4.398;2024-01-15T06:10:40;7.93;;;1.60;;
40453;SDS011;26160;51.858;4.398;2024-01-15T06:13:06;7.07;;;1.90;;
40453;SDS011;26160;51.858;4.398;2024-01-15T06:15:32;6.37;;;1.83;;
40453;SDS011;26160;51.858;4.398;2024-01-15T06:17:58;6.87;;;1.40;;
40453;SDS011;26160;51.858;4.398;2024-01-15T06:20:24;9.43;;;1.40;;
40453;SDS011;26160;51.858;4.398;2024-01-15T06:22:51;8.93;;;1.30;;
40453;SDS011;26160;51.858;4.398;2024-01-15T06:25:17;11.73;;;1.03;;
40453;SDS011;26160;51.858;4.398;2024-01-15T06:27:43;9.97;;;0.97;;
40453;SDS011;26160;51.858;4.398;2024-01-15T06:30:09;5.27;;;0.90;;
40453;SDS011;26160;51.858;4.398;2024-01-15T06:32:36;3.60;;;0.70;;
40453;SDS011;26160;51.858;4.398;2024-01-15T06:35:02;5.47;;;0.77;;
40453;SDS011;26160;51.858;4.398;2024-01-15T06:37:28;2.93;;;0.90;;
40453;SDS011;26160;51.858;4.398;2024-01-15T06:39:54;4.23;;;1.10;;
40453;SDS011;26160;51.858;4.398;2024-01-15T06:42:21;6.10;;;1.13;;
40453;SDS011;26160;51.858;4.398;2024-01-15T06:44:47;9.50;;;1.40;;
40453;SDS011;26160;51.858;4.398;2024-01-15T06:47:13;4.63;;;1.40;;
40453;SDS011;26160;51.858;4.398;2024-01-15T06:49:43;10.47;;;1.87;;
40453;SDS011;26160;51.858;4.398;2024-01-15T06:52:09;9.47;;;2.03;;
40453;SDS011;26160;51.858;4.398;2024-01-15T06:54:38;7.53;;;1.13;;
40453;SDS011;26160;51.858;4.398;2024-01-15T06:57:05;11.87;;;1.17;;
40453;SDS011;26160;51.858;4.398;2024-01-15T06:59:32;11.93;;;1.73;;
40453;SDS011;26160;51.858;4.398;2024-01-15T07:01:59;14.37;;;1.90;;
40453;SDS011;26160;51.858;4.398;2024-01-15T07:04:25;8.80;;;2.10;;
40453;SDS011;26160;51.858;4.398;2024-01-15T07:06:51;6.30;;;1.37;;
40453;SDS011;26160;51.858;4.398;2024-01-15T07:09:17;10.80;;;1.73;;
40453;SDS011;26160;51.858;4.398;2024-01-15T07:11:44;12.30;;;1.63;;
40453;SDS011;26160;51.858;4.398;2024-01-15T07:14:12;12.13;;;2.10;;
40453;SDS011;26160;51.858;4.398;2024-01-15T07:16:38;10.33;;;2.00;;
40453;SDS011;26160;51.858;4.398;2024-01-15T07:19:04;9.53;;;1.53;;
40453;SDS011;26160;51.858;4.398;2024-01-15T07:21:31;5.77;;;1.20;;
40453;SDS011;26160;51.858;4.398;2024-01-15T07:23:57;8.60;;;1.10;;
40453;SDS011;26160;51.858;4.398;2024-01-15T07:26:23;8.17;;;1.00;;
40453;SDS011;26160;51.858;4.398;2024-01-15T07:28:50;8.73;;;1.20;;
40453;SDS011;26160;51.858;4.398;2024-01-15T07:31:17;5.77;;;0.90;;
40453;SDS011;26160;51.858;4.398;2024-01-15T07:33:43;12.27;;;1.43;;
40453;SDS011;26160;51.858;4.398;2024-01-15T07:36:09;12.87;;;1.23;;
40453;SDS011;26160;51.858;4.398;2024-01-15T07:38:38;9.37;;;1.67;;
40453;SDS011;26160;51.858;4.398;2024-01-15T07:41:04;7.80;;;1.20;;
40453;SDS011;26160;51.858;4.398;2024-01-15T07:43:30;10.10;;;1.47;;
40453;SDS011;26160;51.858;4.398;2024-01-15T07:45:57;10.20;;;1.60;;
40453;SDS011;26160;51.858;4.398;2024-01-15T07:48:24;5.30;;;1.30;;
40453;SDS011;26160;51.858;4.398;2024-01-15T07:50:50;8.47;;;1.30;;
40453;SDS011;26160;51.858;4.398;2024-01-15T07:53:16;2.50;;;0.93;;
40453;SDS011;26160;51.858;4.398;2024-01-15T07:55:42;8.27;;;1.20;;
40453;SDS011;26160;51.858;4.398;2024-01-15T07:58:08;8.80;;;1.30;;
40453;SDS011;26160;51.858;4.398;2024-01-15T08:00:34;3.37;;;0.97;;
40453;SDS011;26160;51.858;4.398;2024-01-15T08:03:00;10.40;;;1.50;;
40453;SDS011;26160;51.858;4.398;2024-01-15T08:05:28;10.80;;;1.80;;
40453;SDS011;26160;51.858;4.398;2024-01-15T08:07:54;14.17;;;1.93;;
40453;SDS011;26160;51.858;4.398;2024-01-15T08:10:20;10.77;;;2.30;;
40453;SDS011;26160;51.858;4.398;2024-01-15T08:12:46;14.40;;;2.03;;
40453;SDS011;26160;51.858;4.398;2024-01-15T08:15:12;8.20;;;1.83;;
40453;SDS011;26160;51.858;4.398;2024-01-15T08:17:38;11.87;;;1.63;;
40453;SDS011;26160;51.858;4.398;2024-01-15T08:20:04;11.87;;;1.37;;
40453;SDS011;26160;51.858;4.398;2024-01-15T08:22:31;10.27;;;1.57;;
40453;SDS011;26160;51.858;4.398;2024-01-15T08:24:57;7.40;;;1.50;;
40453;SDS011;26160;51.858;4.398;2024-01-15T08:27:23;8.50;;;1.60;;
40453;SDS011;26160;51.858;4.398;2024-01-15T08:29:49;10.33;;;1.33;;
40453;SDS011;26160;51.858;4.398;2024-01-15T08:32:16;7.30;;;0.83;;
40453;SDS011;26160;51.858;4.398;2024-01-15T08:34:42;13.63;;;1.23;;
40453;SDS011;26160;51.858;4.398;2024-01-15T08:37:08;9.13;;;0.90;;
40453;SDS011;26160;51.858;4.398;2024-01-15T08:39:35;7.47;;;1.43;;
40453;SDS011;26160;51.858;4.398;2024-01-15T08:42:04;12.07;;;1.33;;
40453;SDS011;26160;51.858;4.398;2024-01-15T08:44:31;12.87;;;1.40;;
40453;SDS011;26160;51.858;4.398;2024-01-15T08:46:57;9.17;;;1.53;;
40453;SDS011;26160;51.858;4.398;2024-01-15T08:49:23;9.10;;;1.97;;
40453;SDS011;26160;51.858;4.398;2024-01-15T08:51:49;15.00;;;1.77;;
40453;SDS011;26160;51.858;4.398;2024-01-15T08:54:15;13.47;;;1.13;;
40453;SDS011;26160;51.858;4.398;2024-01-15T08:56:42;11.73;;;1.40;;
40453;SDS011;26160;51.858;4.398;2024-01-15T08:59:08;11.57;;;1.47;;
40453;SDS011;26160;51.858;4.398;2024-01-15T09:01:34;8.90;;;1.87;;
40453;SDS011;26160;51.858;4.398;2024-01-15T09:04:00;13.53;;;1.50;;
40453;SDS011;26160;51.858;4.398;2024-01-15T09:06:26;6.73;;;1.10;;
40453;SDS011;26160;51.858;4.398;2024-01-15T09:08:53;10.50;;;1.40;;
40453;SDS011;26160;51.858;4.398;2024-01-15T09:11:19;9.13;;;1.30;;
40453;SDS011;26160;51.858;4.398;2024-01-15T09:13:45;7.37;;;0.70;;
40453;SDS011;26160;51.858;4.398;2024-01-15T09:16:11;9.17;;;1.20;;
40453;SDS011;26160;51.858;4.398;2024-01-15T09:18:37;12.70;;;1.33;;
40453;SDS011;26160;51.858;4.398;2024-01-15T09:21:04;12.13;;;1.43;;
40453;SDS011;26160;51.858;4.398;2024-01-15T09:23:30;12.70;;;1.67;;
40453;SDS011;26160;51.858;4.398;2024-01-15T09:25:56;7.93;;;0.90;;
40453;SDS011;26160;51.858;4.398;2024-01-15T09:28:22;11.00;;;1.10;;
40453;SDS011;26160;51.858;4.398;2024-01-15T09:30:48;7.77;;;0.90;;
40453;SDS011;26160;51.858;4.398;2024-01-15T09:33:14;8.73;;;1.10;;
40453;SDS011;26160;51.858;4.398;2024-01-15T09:35:41;6.33;;;1.17;;
40453;SDS011;26160;51.858;4.398;2024-01-15T09:38:07;5.50;;;0.80;;
40453;SDS011;26160;51.858;4.398;2024-01-15T09:40:33;5.77;;;1.17;;
40453;SDS011;26160;51.858;4.398;2024-01-15T09:42:59;9.30;;;1.27;;
40453;SDS011;26160;51.858;4.398;2024-01-15T09:45:26;3.87;;;0.70;;
40453;SDS011;26160;51.858;4.398;2024-01-15T09:47:53;2.90;;;0.70;;
40453;SDS011;26160;51.858;4.398;2024-01-15T09:50:19;5.70;;;1.10;;
40453;SDS011;26160;51.858;4.398;2024-01-15T09:52:45;4.60;;;1.00;;
40453;SDS011;26160;51.858;4.398;2024-01-15T09:55:13;7.60;;;1.70;;
40453;SDS011;26160;51.858;4.398;2024-01-15T09:57:46;9.67;;;2.63;;
40453;SDS011;26160;51.858;4.398;2024-01-15T10:00:12;5.80;;;1.57;;
40453;SDS011;26160;51.858;4.398;2024-01-15T10:02:40;12.40;;;2.00;;
40453;SDS011;26160;51.858;4.398;2024-01-15T10:05:06;8.97;;;1.20;;
40453;SDS011;26160;51.858;4.398;2024-01-15T10:07:34;9.37;;;1.73;;
40453;SDS011;26160;51.858;4.398;2024-01-15T10:10:02;7.40;;;1.90;;
40453;SDS011;26160;51.858;4.398;2024-01-15T10:12:31;6.93;;;2.40;;
40453;SDS011;26160;51.858;4.398;2024-01-15T10:14:58;10.77;;;1.13;;
40453;SDS011;26160;51.858;4.398;2024-01-15T10:17:24;10.07;;;1.70;;
40453;SDS011;26160;51.858;4.398;2024-01-15T10:19:55;9.10;;;1.10;;
40453;SDS011;26160;51.858;4.398;2024-01-15T10:22:21;11.90;;;1.50;;
40453;SDS011;26160;51.858;4.398;2024-01-15T10:24:47;10.00;;;1.70;;
40453;SDS011;26160;51.858;4.398;2024-01-15T10:27:13;8.37;;;1.40;;
40453;SDS011;26160;51.858;4.398;2024-01-15T10:29:41;13.97;;;2.60;;
40453;SDS011;26160;51.858;4.398;2024-01-15T10:32:07;10.53;;;1.33;;
40453;SDS011;26160;51.858;4.398;2024-01-15T10:34:37;14.00;;;1.70;;
40453;SDS011;26160;51.858;4.398;2024-01-15T10:37:07;12.40;;;1.30;;
40453;SDS011;26160;51.858;4.398;2024-01-15T10:39:33;7.10;;;1.30;;
40453;SDS011;26160;51.858;4.398;2024-01-15T10:42:00;8.73;;;1.47;;
40453;SDS011;26160;51.858;4.398;2024-01-15T10:44:27;5.67;;;1.20;;
40453;SDS011;26160;51.858;4.398;2024-01-15T10:46:53;9.30;;;1.20;;
40453;SDS011;26160;51.858;4.398;2024-01-15T10:49:21;9.23;;;1.10;;
40453;SDS011;26160;51.858;4.398;2024-01-15T10:51:52;7.03;;;0.93;;
40453;SDS011;26160;51.858;4.398;2024-01-15T10:54:19;5.83;;;0.70;;
40453;SDS011;26160;51.858;4.398;2024-01-15T10:56:46;5.50;;;1.03;;
40453;SDS011;26160;51.858;4.398;2024-01-15T10:59:13;3.90;;;0.90;;
40453;SDS011;26160;51.858;4.398;2024-01-15T11:04:26;5.87;;;2.30;;
40453;SDS011;26160;51.858;4.398;2024-01-15T11:06:54;5.17;;;1.00;;
40453;SDS011;26160;51.858;4.398;2024-01-15T11:09:21;1.27;;;0.30;;
40453;SDS011;26160;51.858;4.398;2024-01-15T11:14:41;2.97;;;0.57;;
40453;SDS011;26160;51.858;4.398;2024-01-15T11:20:30;4.57;;;0.50;;
40453;SDS011;26160;51.858;4.398;2024-01-15T11:23:01;4.43;;;0.80;;
40453;SDS011;26160;51.858;4.398;2024-01-15T11:25:34;5.47;;;1.00;;
40453;SDS011;26160;51.858;4.398;2024-01-15T11:28:02;5.93;;;1.43;;
40453;SDS011;26160;51.858;4.398;2024-01-15T11:30:37;8.33;;;1.80;;
40453;SDS011;26160;51.858;4.398;2024-01-15T11:33:03;6.10;;;1.00;;
40453;SDS011;26160;51.858;4.398;2024-01-15T11:35:55;11.90;;;1.40;;
40453;SDS011;26160;51.858;4.398;2024-01-15T11:38:27;7.33;;;1.37;;
40453;SDS011;26160;51.858;4.398;2024-01-15T11:40:54;5.27;;;1.33;;
40453;SDS011;26160;51.858;4.398;2024-01-15T11:43:40;7.97;;;1.80;;
40453;SDS011;26160;51.858;4.398;2024-01-15T11:46:09;9.30;;;1.33;;
40453;SDS011;26160;51.858;4.398;2024-01-15T11:48:42;13.60;;;1.27;;
40453;SDS011;26160;51.858;4.398;2024-01-15T11:51:13;8.82;;;1.52;;
40453;SDS011;26160;51.858;4.398;2024-01-15T11:53:55;10.50;;;1.33;;
40453;SDS011;26160;51.858;4.398;2024-01-15T11:56:28;8.37;;;1.83;;
40453;SDS011;26160;51.858;4.398;2024-01-15T11:59:10;9.23;;;1.30;;
40453;SDS011;26160;51.858;4.398;2024-01-15T12:01:37;6.57;;;1.03;;
40453;SDS011;26160;51.858;4.398;2024-01-15T12:07:04;6.70;;;1.03;;
40453;SDS011;26160;51.858;4.398;2024-01-15T12:09:31;7.07;;;1.10;;
40453;SDS011;26160;51.858;4.398;2024-01-15T12:12:07;6.67;;;1.37;;
40453;SDS011;26160;51.858;4.398;2024-01-15T12:14:40;3.70;;;1.00;;
40453;SDS011;26160;51.858;4.398;2024-01-15T12:17:06;9.13;;;1.13;;
40453;SDS011;26160;51.858;4.398;2024-01-15T12:19:40;8.63;;;1.43;;
40453;SDS011;26160;51.858;4.398;2024-01-15T12:22:28;7.30;;;1.20;;
40453;SDS011;26160;51.858;4.398;2024-01-15T12:25:00;8.15;;;1.63;;
40453;SDS011;26160;51.858;4.398;2024-01-15T12:27:26;6.83;;;1.50;;
40453;SDS011;26160;51.858;4.398;2024-01-15T12:30:02;12.43;;;1.80;;
40453;SDS011;26160;51.858;4.398;2024-01-15T12:32:29;8.17;;;1.43;;
40453;SDS011;26160;51.858;4.398;2024-01-15T12:35:31;15.60;;;1.83;;
40453;SDS011;26160;51.858;4.398;2024-01-15T12:38:11;12.23;;;1.90;;
40453;SDS011;26160;51.858;4.398;2024-01-15T12:44:34;18.90;;;2.50;;
40453;SDS011;26160;51.858;4.398;2024-01-15T12:47:05;12.63;;;2.77;;
40453;SDS011;26160;51.858;4.398;2024-01-15T12:49:31;13.67;;;2.53;;
40453;SDS011;26160;51.858;4.398;2024-01-15T12:51:58;17.27;;;2.57;;
40453;SDS011;26160;51.858;4.398;2024-01-15T12:54:25;11.50;;;2.03;;
40453;SDS011;26160;51.858;4.398;2024-01-15T12:56:51;10.17;;;2.00;;
40453;SDS011;26160;51.858;4.398;2024-01-15T12:59:21;15.13;;;3.53;;
40453;SDS011;26160;51.858;4.398;2024-01-15T13:02:13;10.97;;;2.70;;
40453;SDS011;26160;51.858;4.398;2024-01-15T13:04:39;14.40;;;1.75;;
40453;SDS011;26160;51.858;4.398;2024-01-15T13:09:58;6.70;;;1.10;;
40453;SDS011;26160;51.858;4.398;2024-01-15T13:12:24;9.33;;;1.10;;
40453;SDS011;26160;51.858;4.398;2024-01-15T13:14:50;10.13;;;1.30;;
40453;SDS011;26160;51.858;4.398;2024-01-15T13:17:17;8.37;;;1.30;;
40453;SDS011;26160;51.858;4.398;2024-01-15T13:19:43;10.87;;;1.40;;
40453;SDS011;26160;51.858;4.398;2024-01-15T13:22:09;10.30;;;2.27;;
40453;SDS011;26160;51.858;4.398;2024-01-15T13:24:35;14.83;;;1.63;;
40453;SDS011;26160;51.858;4.398;2024-01-15T13:27:02;7.37;;;2.17;;
40453;SDS011;26160;51.858;4.398;2024-01-15T13:29:30;8.47;;;1.50;;
40453;SDS011;26160;51.858;4.398;2024-01-15T13:31:56;10.83;;;1.57;;
40453;SDS011;26160;51.858;4.398;2024-01-15T13:34:23;12.90;;;1.50;;
40453;SDS011;26160;51.858;4.398;2024-01-15T13:36:49;10.93;;;1.30;;
40453;SDS011;26160;51.858;4.398;2024-01-15T13:39:15;7.93;;;1.70;;
40453;SDS011;26160;51.858;4.398;2024-01-15T13:41:48;9.27;;;1.50;;
40453;SDS011;26160;51.858;4.398;2024-01-15T13:44:15;7.37;;;1.33;;
40453;SDS011;26160;51.858;4.398;2024-01-15T13:46:41;7.47;;;1.10;;
40453;SDS011;26160;51.858;4.398;2024-01-15T13:49:07;8.93;;;2.53;;
40453;SDS011;26160;51.858;4.398;2024-01-15T13:51:35;7.57;;;1.27;;
40453;SDS011;26160;51.858;4.398;2024-01-15T13:54:02;8.07;;;1.53;;
40453;SDS011;26160;51.858;4.398;2024-01-15T13:56:30;7.63;;;1.73;;
40453;SDS011;26160;51.858;4.398;2024-01-15T13:58:58;11.90;;;1.30;;
40453;SDS011;26160;51.858;4.398;2024-01-15T14:01:25;9.23;;;1.90;;
40453;SDS011;26160;51.858;4.398;2024-01-15T14:03:51;15.17;;;2.00;;
40453;SDS011;26160;51.858;4.398;2024-01-15T14:06:17;9.67;;;1.80;;
40453;SDS011;26160;51.858;4.398;2024-01-15T14:08:43;11.23;;;1.93;;
40453;SDS011;26160;51.858;4.398;2024-01-15T14:11:13;12.97;;;1.60;;
40453;SDS011;26160;51.858;4.398;2024-01-15T14:13:44;16.97;;;2.27;;
40453;SDS011;26160;51.858;4.398;2024-01-15T14:16:10;10.77;;;2.00;;
40453;SDS011;26160;51.858;4.398;2024-01-15T14:18:37;15.47;;;2.20;;
40453;SDS011;26160;51.858;4.398;2024-01-15T14:21:03;11.27;;;1.80;;
40453;SDS011;26160;51.858;4.398;2024-01-15T14:23:29;19.13;;;2.30;;
40453;SDS011;26160;51.858;4.398;2024-01-15T14:25:56;14.63;;;2.00;;
40453;SDS011;26160;51.858;4.398;2024-01-15T14:28:22;17.60;;;1.83;;
40453;SDS011;26160;51.858;4.398;2024-01-15T14:30:48;13.33;;;2.07;;
40453;SDS011;26160;51.858;4.398;2024-01-15T14:33:15;7.83;;;1.40;;
40453;SDS011;26160;51.858;4.398;2024-01-15T14:35:41;11.27;;;1.40;;
40453;SDS011;26160;51.858;4.398;2024-01-15T14:38:07;8.13;;;1.13;;
40453;SDS011;26160;51.858;4.398;2024-01-15T14:40:34;4.10;;;0.43;;
40453;SDS011;26160;51.858;4.398;2024-01-15T14:43:01;6.10;;;0.50;;
40453;SDS011;26160;51.858;4.398;2024-01-15T14:45:28;3.23;;;0.53;;
40453;SDS011;26160;51.858;4.398;2024-01-15T14:47:58;4.77;;;0.60;;
40453;SDS011;26160;51.858;4.398;2024-01-15T14:50:25;3.63;;;0.70;;
40453;SDS011;26160;51.858;4.398;2024-01-15T14:52:51;2.10;;;0.50;;
40453;SDS011;26160;51.858;4.398;2024-01-15T14:55:17;5.97;;;1.03;;
40453;SDS011;26160;51.858;4.398;2024-01-15T14:57:43;9.90;;;1.10;;
40453;SDS011;26160;51.858;4.398;2024-01-15T15:00:13;13.33;;;1.40;;
40453;SDS011;26160;51.858;4.398;2024-01-15T15:02:42;8.10;;;1.38;;
40453;SDS011;26160;51.858;4.398;2024-01-15T15:05:08;10.57;;;1.87;;